sensor_id;sensor_type;location;lat;lon;timestamp;temperature;humidity
28189;DHT22;15471;51.166;4.470;2022-11-09T00:00:45;14.70;99.90
28189;DHT22;15471;51.166;4.470;2022-11-09T00:03:11;14.60;99.90
28189;DHT22;15471;51.166;4.470;2022-11-09T00:05:37;14.60;99.90
28189;DHT22;15471;51.166;4.470;2022-11-09T00:08:07;14.50;99.90
28189;DHT22;15471;51.166;4.470;2022-11-09T00:10:34;14.50;99.90
28189;DHT22;15471;51.166;4.470;2022-11-09T00:13:01;14.50;99.90
28189;DHT22;15471;51.166;4.470;2022-11-09T00:15:27;14.50;99.90
28189;DHT22;15471;51.166;4.470;2022-11-09T00:17:53;14.40;99.90
28189;DHT22;15471;51.166;4.470;2022-11-09T00:20:19;14.40;99.90
28189;DHT22;15471;51.166;4.470;2022-11-09T00:22:48;14.30;99.90
28189;DHT22;15471;51.166;4.470;2022-11-09T00:25:15;14.30;99.90
28189;DHT22;15471;51.166;4.470;2022-11-09T00:27:41;14.30;99.90
28189;DHT22;15471;51.166;4.470;2022-11-09T00:30:07;14.20;99.90
28189;DHT22;15471;51.166;4.470;2022-11-09T00:32:35;14.20;99.90
28189;DHT22;15471;51.166;4.470;2022-11-09T00:35:01;14.20;99.90
28189;DHT22;15471;51.166;4.470;2022-11-09T00:37:29;14.20;99.90
28189;DHT22;15471;51.166;4.470;2022-11-09T00:39:55;14.10;99.90
28189;DHT22;15471;51.166;4.470;2022-11-09T00:42:20;14.10;99.90
28189;DHT22;15471;51.166;4.470;2022-11-09T00:44:46;14.10;99.90
28189;DHT22;15471;51.166;4.470;2022-11-09T00:47:12;14.10;99.90
28189;DHT22;15471;51.166;4.470;2022-11-09T00:49:38;14.00;99.90
28189;DHT22;15471;51.166;4.470;2022-11-09T00:52:04;14.10;99.90
28189;DHT22;15471;51.166;4.470;2022-11-09T00:54:30;14.10;99.90
28189;DHT22;15471;51.166;4.470;2022-11-09T00:56:56;14.00;99.90
28189;DHT22;15471;51.166;4.470;2022-11-09T00:59:22;14.00;99.90
28189;DHT22;15471;51.166;4.470;2022-11-09T01:01:48;14.00;99.90
28189;DHT22;15471;51.166;4.470;2022-11-09T01:04:17;14.00;99.90
28189;DHT22;15471;51.166;4.470;2022-11-09T01:06:43;14.00;99.90
28189;DHT22;15471;51.166;4.470;2022-11-09T01:09:09;14.00;99.90
28189;DHT22;15471;51.166;4.470;2022-11-09T01:11:36;14.00;99.90
28189;DHT22;15471;51.166;4.470;2022-11-09T01:14:03;14.00;99.90
28189;DHT22;15471;51.166;4.470;2022-11-09T01:16:29;13.90;99.90
28189;DHT22;15471;51.166;4.470;2022-11-09T01:18:56;13.90;99.90
28189;DHT22;15471;51.166;4.470;2022-11-09T01:21:24;13.80;99.90
28189;DHT22;15471;51.166;4.470;2022-11-09T01:23:50;13.80;99.90
28189;DHT22;15471;51.166;4.470;2022-11-09T01:26:18;13.80;99.90
28189;DHT22;15471;51.166;4.470;2022-11-09T01:28:44;13.90;99.90
28189;DHT22;15471;51.166;4.470;2022-11-09T01:31:13;13.80;99.90
28189;DHT22;15471;51.166;4.470;2022-11-09T01:33:39;13.80;99.90
28189;DHT22;15471;51.166;4.470;2022-11-09T01:36:11;13.80;99.90
28189;DHT22;15471;51.166;4.470;2022-11-09T01:38:37;13.80;99.90
28189;DHT22;15471;51.166;4.470;2022-11-09T01:41:05;13.80;99.90
28189;DHT22;15471;51.166;4.470;2022-11-09T01:43:33;13.80;99.90
28189;DHT22;15471;51.166;4.470;2022-11-09T01:48:33;13.90;99.90
28189;DHT22;15471;51.166;4.470;2022-11-09T01:51:06;13.90;99.90
28189;DHT22;15471;51.166;4.470;2022-11-09T01:53:37;13.90;99.90
28189;DHT22;15471;51.166;4.470;2022-11-09T01:56:06;13.90;99.90
28189;DHT22;15471;51.166;4.470;2022-11-09T01:58:39;13.90;99.90
28189;DHT22;15471;51.166;4.470;2022-11-09T02:01:06;13.90;99.90
28189;DHT22;15471;51.166;4.470;2022-11-09T02:03:55;13.90;99.90
28189;DHT22;15471;51.166;4.470;2022-11-09T02:06:25;13.90;99.90
28189;DHT22;15471;51.166;4.470;2022-11-09T02:08:57;13.90;99.90
28189;DHT22;15471;51.166;4.470;2022-11-09T02:11:26;13.90;99.90
28189;DHT22;15471;51.166;4.470;2022-11-09T02:13:57;13.80;99.90
28189;DHT22;15471;51.166;4.470;2022-11-09T02:16:25;13.80;99.90
28189;DHT22;15471;51.166;4.470;2022-11-09T02:18:54;13.80;99.90
28189;DHT22;15471;51.166;4.470;2022-11-09T02:21:25;13.80;99.90
28189;DHT22;15471;51.166;4.470;2022-11-09T02:23:53;13.80;99.90
28189;DHT22;15471;51.166;4.470;2022-11-09T02:26:28;13.80;99.90
28189;DHT22;15471;51.166;4.470;2022-11-09T02:28:57;13.80;99.90
28189;DHT22;15471;51.166;4.470;2022-11-09T02:31:27;13.80;99.90
28189;DHT22;15471;51.166;4.470;2022-11-09T02:34:04;13.70;99.90
28189;DHT22;15471;51.166;4.470;2022-11-09T02:36:32;13.70;99.90
28189;DHT22;15471;51.166;4.470;2022-11-09T02:39:00;13.70;99.90
28189;DHT22;15471;51.166;4.470;2022-11-09T02:41:27;13.70;99.90
28189;DHT22;15471;51.166;4.470;2022-11-09T02:43:55;13.70;99.90
28189;DHT22;15471;51.166;4.470;2022-11-09T02:46:35;13.70;99.90
28189;DHT22;15471;51.166;4.470;2022-11-09T02:49:03;13.70;99.90
28189;DHT22;15471;51.166;4.470;2022-11-09T02:51:30;13.70;99.90
28189;DHT22;15471;51.166;4.470;2022-11-09T02:53:56;13.70;99.90
28189;DHT22;15471;51.166;4.470;2022-11-09T02:56:22;13.80;99.90
28189;DHT22;15471;51.166;4.470;2022-11-09T02:58:48;13.80;99.90
28189;DHT22;15471;51.166;4.470;2022-11-09T03:01:15;13.80;99.90
28189;DHT22;15471;51.166;4.470;2022-11-09T03:03:41;13.70;99.90
28189;DHT22;15471;51.166;4.470;2022-11-09T03:06:07;13.70;99.90
28189;DHT22;15471;51.166;4.470;2022-11-09T03:08:34;13.70;99.90
28189;DHT22;15471;51.166;4.470;2022-11-09T03:11:02;13.60;99.90
28189;DHT22;15471;51.166;4.470;2022-11-09T03:13:28;13.50;99.90
28189;DHT22;15471;51.166;4.470;2022-11-09T03:15:55;13.50;99.90
28189;DHT22;15471;51.166;4.470;2022-11-09T03:18:21;13.50;99.90
28189;DHT22;15471;51.166;4.470;2022-11-09T03:20:47;13.50;99.90
28189;DHT22;15471;51.166;4.470;2022-11-09T03:23:15;13.50;99.90
28189;DHT22;15471;51.166;4.470;2022-11-09T03:25:42;13.50;99.90
28189;DHT22;15471;51.166;4.470;2022-11-09T03:28:08;13.50;99.90
28189;DHT22;15471;51.166;4.470;2022-11-09T03:30:34;13.40;99.90
28189;DHT22;15471;51.166;4.470;2022-11-09T03:33:05;13.30;99.90
28189;DHT22;15471;51.166;4.470;2022-11-09T03:35:40;13.40;99.90
28189;DHT22;15471;51.166;4.470;2022-11-09T03:38:09;13.30;99.90
28189;DHT22;15471;51.166;4.470;2022-11-09T03:40:35;13.30;99.90
28189;DHT22;15471;51.166;4.470;2022-11-09T03:43:02;13.20;99.90
28189;DHT22;15471;51.166;4.470;2022-11-09T03:45:28;13.30;99.90
28189;DHT22;15471;51.166;4.470;2022-11-09T03:47:54;13.30;99.90
28189;DHT22;15471;51.166;4.470;2022-11-09T03:50:26;13.30;99.90
28189;DHT22;15471;51.166;4.470;2022-11-09T03:52:53;13.20;99.90
28189;DHT22;15471;51.166;4.470;2022-11-09T03:55:19;13.20;99.90
28189;DHT22;15471;51.166;4.470;2022-11-09T03:57:46;13.10;99.90
28189;DHT22;15471;51.166;4.470;2022-11-09T04:00:14;13.10;99.90
28189;DHT22;15471;51.166;4.470;2022-11-09T04:02:40;13.10;99.90
28189;DHT22;15471;51.166;4.470;2022-11-09T04:05:07;13.10;99.90
28189;DHT22;15471;51.166;4.470;2022-11-09T04:07:34;13.10;99.90
28189;DHT22;15471;51.166;4.470;2022-11-09T04:10:00;13.10;99.90
28189;DHT22;15471;51.166;4.470;2022-11-09T04:12:26;13.00;99.90
28189;DHT22;15471;51.166;4.470;2022-11-09T04:14:52;13.00;99.90
28189;DHT22;15471;51.166;4.470;2022-11-09T04:17:18;13.00;99.90
28189;DHT22;15471;51.166;4.470;2022-11-09T04:19:44;13.00;99.90
28189;DHT22;15471;51.166;4.470;2022-11-09T04:22:10;13.00;99.90
28189;DHT22;15471;51.166;4.470;2022-11-09T04:24:36;12.90;99.90
28189;DHT22;15471;51.166;4.470;2022-11-09T04:27:03;12.80;99.90
28189;DHT22;15471;51.166;4.470;2022-11-09T04:29:29;12.80;99.90
28189;DHT22;15471;51.166;4.470;2022-11-09T04:31:55;12.80;99.90
28189;DHT22;15471;51.166;4.470;2022-11-09T04:34:21;12.90;99.90
28189;DHT22;15471;51.166;4.470;2022-11-09T04:36:48;12.90;99.90
28189;DHT22;15471;51.166;4.470;2022-11-09T04:39:14;12.90;99.90
28189;DHT22;15471;51.166;4.470;2022-11-09T04:41:40;12.80;99.90
28189;DHT22;15471;51.166;4.470;2022-11-09T04:44:06;12.90;99.90
28189;DHT22;15471;51.166;4.470;2022-11-09T04:46:32;12.90;99.90
28189;DHT22;15471;51.166;4.470;2022-11-09T04:48:58;12.90;99.90
28189;DHT22;15471;51.166;4.470;2022-11-09T04:51:24;13.00;99.90
28189;DHT22;15471;51.166;4.470;2022-11-09T04:53:50;13.20;99.90
28189;DHT22;15471;51.166;4.470;2022-11-09T04:56:16;13.10;99.90
28189;DHT22;15471;51.166;4.470;2022-11-09T04:58:42;13.20;99.90
28189;DHT22;15471;51.166;4.470;2022-11-09T05:01:12;13.30;99.90
28189;DHT22;15471;51.166;4.470;2022-11-09T05:03:39;13.30;99.90
28189;DHT22;15471;51.166;4.470;2022-11-09T05:06:05;13.30;99.90
28189;DHT22;15471;51.166;4.470;2022-11-09T05:08:50;13.30;99.90
28189;DHT22;15471;51.166;4.470;2022-11-09T05:11:16;13.30;99.90
28189;DHT22;15471;51.166;4.470;2022-11-09T05:13:42;13.30;99.90
28189;DHT22;15471;51.166;4.470;2022-11-09T05:16:08;13.30;99.90
28189;DHT22;15471;51.166;4.470;2022-11-09T05:18:35;13.30;99.90
28189;DHT22;15471;51.166;4.470;2022-11-09T05:21:01;13.30;99.90
28189;DHT22;15471;51.166;4.470;2022-11-09T05:23:27;13.20;99.90
28189;DHT22;15471;51.166;4.470;2022-11-09T05:26:13;13.20;99.90
28189;DHT22;15471;51.166;4.470;2022-11-09T05:28:39;13.20;99.90
28189;DHT22;15471;51.166;4.470;2022-11-09T05:31:05;13.20;99.90
28189;DHT22;15471;51.166;4.470;2022-11-09T05:33:32;13.20;99.90
28189;DHT22;15471;51.166;4.470;2022-11-09T05:35:58;13.20;99.90
28189;DHT22;15471;51.166;4.470;2022-11-09T05:38:24;13.20;99.90
28189;DHT22;15471;51.166;4.470;2022-11-09T05:40:51;13.10;99.90
28189;DHT22;15471;51.166;4.470;2022-11-09T05:43:18;13.10;99.90
28189;DHT22;15471;51.166;4.470;2022-11-09T05:45:44;13.20;99.90
28189;DHT22;15471;51.166;4.470;2022-11-09T05:48:12;13.10;99.90
28189;DHT22;15471;51.166;4.470;2022-11-09T05:50:39;13.10;99.90
28189;DHT22;15471;51.166;4.470;2022-11-09T05:53:13;13.00;99.90
28189;DHT22;15471;51.166;4.470;2022-11-09T05:55:39;13.00;99.90
28189;DHT22;15471;51.166;4.470;2022-11-09T05:58:06;13.00;99.90
28189;DHT22;15471;51.166;4.470;2022-11-09T06:00:32;12.90;99.90
28189;DHT22;15471;51.166;4.470;2022-11-09T06:03:07;12.90;99.90
28189;DHT22;15471;51.166;4.470;2022-11-09T06:05:34;12.80;99.90
28189;DHT22;15471;51.166;4.470;2022-11-09T06:08:05;12.80;99.90
28189;DHT22;15471;51.166;4.470;2022-11-09T06:10:32;12.80;99.90
28189;DHT22;15471;51.166;4.470;2022-11-09T06:12:58;12.80;99.90
28189;DHT22;15471;51.166;4.470;2022-11-09T06:15:23;12.90;99.90
28189;DHT22;15471;51.166;4.470;2022-11-09T06:17:54;12.80;99.90
28189;DHT22;15471;51.166;4.470;2022-11-09T06:20:21;12.90;99.90
28189;DHT22;15471;51.166;4.470;2022-11-09T06:22:59;12.90;99.90
28189;DHT22;15471;51.166;4.470;2022-11-09T06:25:26;13.00;99.90
28189;DHT22;15471;51.166;4.470;2022-11-09T06:27:53;12.90;99.90
28189;DHT22;15471;51.166;4.470;2022-11-09T06:30:20;13.00;99.90
28189;DHT22;15471;51.166;4.470;2022-11-09T06:32:46;13.00;99.90
28189;DHT22;15471;51.166;4.470;2022-11-09T06:35:13;12.90;99.90
28189;DHT22;15471;51.166;4.470;2022-11-09T06:37:39;12.90;99.90
28189;DHT22;15471;51.166;4.470;2022-11-09T06:40:06;12.90;99.90
28189;DHT22;15471;51.166;4.470;2022-11-09T06:42:32;12.90;99.90
28189;DHT22;15471;51.166;4.470;2022-11-09T06:44:58;12.90;99.90
28189;DHT22;15471;51.166;4.470;2022-11-09T06:47:24;12.90;99.90
28189;DHT22;15471;51.166;4.470;2022-11-09T06:49:51;12.90;99.90
28189;DHT22;15471;51.166;4.470;2022-11-09T06:52:17;12.80;99.90
28189;DHT22;15471;51.166;4.470;2022-11-09T06:54:43;12.80;99.90
28189;DHT22;15471;51.166;4.470;2022-11-09T06:57:09;12.70;99.90
28189;DHT22;15471;51.166;4.470;2022-11-09T06:59:36;12.70;99.90
28189;DHT22;15471;51.166;4.470;2022-11-09T07:02:02;12.60;99.90
28189;DHT22;15471;51.166;4.470;2022-11-09T07:04:28;12.60;99.90
28189;DHT22;15471;51.166;4.470;2022-11-09T07:06:54;12.50;99.90
28189;DHT22;15471;51.166;4.470;2022-11-09T07:09:20;12.50;99.90
28189;DHT22;15471;51.166;4.470;2022-11-09T07:11:48;12.40;99.90
28189;DHT22;15471;51.166;4.470;2022-11-09T07:14:16;12.40;99.90
28189;DHT22;15471;51.166;4.470;2022-11-09T07:16:42;12.40;99.90
28189;DHT22;15471;51.166;4.470;2022-11-09T07:19:08;12.40;99.90
28189;DHT22;15471;51.166;4.470;2022-11-09T07:21:34;12.40;99.90
28189;DHT22;15471;51.166;4.470;2022-11-09T07:24:00;12.30;99.90
28189;DHT22;15471;51.166;4.470;2022-11-09T07:26:26;12.30;99.90
28189;DHT22;15471;51.166;4.470;2022-11-09T07:28:52;12.20;99.90
28189;DHT22;15471;51.166;4.470;2022-11-09T07:31:18;12.30;99.90
28189;DHT22;15471;51.166;4.470;2022-11-09T07:33:44;12.30;99.90
28189;DHT22;15471;51.166;4.470;2022-11-09T07:36:10;12.30;99.90
28189;DHT22;15471;51.166;4.470;2022-11-09T07:38:36;12.30;99.90
28189;DHT22;15471;51.166;4.470;2022-11-09T07:41:02;12.20;99.90
28189;DHT22;15471;51.166;4.470;2022-11-09T07:43:29;12.20;99.90
28189;DHT22;15471;51.166;4.470;2022-11-09T07:45:57;12.20;99.90
28189;DHT22;15471;51.166;4.470;2022-11-09T07:48:23;12.30;99.90
28189;DHT22;15471;51.166;4.470;2022-11-09T07:50:49;12.20;99.90
28189;DHT22;15471;51.166;4.470;2022-11-09T07:53:15;12.20;99.90
28189;DHT22;15471;51.166;4.470;2022-11-09T07:55:44;12.20;99.90
28189;DHT22;15471;51.166;4.470;2022-11-09T07:58:12;12.20;99.90
28189;DHT22;15471;51.166;4.470;2022-11-09T08:00:40;12.20;99.90
28189;DHT22;15471;51.166;4.470;2022-11-09T08:03:07;12.30;99.90
28189;DHT22;15471;51.166;4.470;2022-11-09T08:05:34;12.30;99.90
28189;DHT22;15471;51.166;4.470;2022-11-09T08:08:07;12.30;99.90
28189;DHT22;15471;51.166;4.470;2022-11-09T08:10:34;12.30;99.90
28189;DHT22;15471;51.166;4.470;2022-11-09T08:13:06;12.30;99.90
28189;DHT22;15471;51.166;4.470;2022-11-09T08:15:34;12.40;99.90
28189;DHT22;15471;51.166;4.470;2022-11-09T08:18:02;12.40;99.90
28189;DHT22;15471;51.166;4.470;2022-11-09T08:20:29;12.50;99.90
28189;DHT22;15471;51.166;4.470;2022-11-09T08:22:56;12.70;99.90
28189;DHT22;15471;51.166;4.470;2022-11-09T08:25:22;12.80;99.90
28189;DHT22;15471;51.166;4.470;2022-11-09T08:27:48;13.00;99.90
28189;DHT22;15471;51.166;4.470;2022-11-09T08:30:16;13.10;99.90
28189;DHT22;15471;51.166;4.470;2022-11-09T08:32:43;13.20;99.90
28189;DHT22;15471;51.166;4.470;2022-11-09T08:35:11;13.20;99.90
28189;DHT22;15471;51.166;4.470;2022-11-09T08:37:38;13.20;99.90
28189;DHT22;15471;51.166;4.470;2022-11-09T08:40:05;13.20;99.90
28189;DHT22;15471;51.166;4.470;2022-11-09T08:42:32;13.40;99.90
28189;DHT22;15471;51.166;4.470;2022-11-09T08:44:58;13.50;99.90
28189;DHT22;15471;51.166;4.470;2022-11-09T08:47:24;13.50;99.90
28189;DHT22;15471;51.166;4.470;2022-11-09T08:49:50;13.60;99.90
28189;DHT22;15471;51.166;4.470;2022-11-09T08:52:16;13.70;99.90
28189;DHT22;15471;51.166;4.470;2022-11-09T08:54:42;13.70;99.90
28189;DHT22;15471;51.166;4.470;2022-11-09T08:57:09;13.70;99.90
28189;DHT22;15471;51.166;4.470;2022-11-09T08:59:35;13.70;99.90
28189;DHT22;15471;51.166;4.470;2022-11-09T09:02:01;13.70;99.90
28189;DHT22;15471;51.166;4.470;2022-11-09T09:04:27;13.60;99.90
28189;DHT22;15471;51.166;4.470;2022-11-09T09:06:54;13.60;99.90
28189;DHT22;15471;51.166;4.470;2022-11-09T09:09:20;13.60;99.90
28189;DHT22;15471;51.166;4.470;2022-11-09T09:11:47;13.80;99.90
28189;DHT22;15471;51.166;4.470;2022-11-09T09:14:14;13.90;99.90
28189;DHT22;15471;51.166;4.470;2022-11-09T09:16:41;13.90;99.90
28189;DHT22;15471;51.166;4.470;2022-11-09T09:19:07;14.00;99.90
28189;DHT22;15471;51.166;4.470;2022-11-09T09:21:33;14.00;99.90
28189;DHT22;15471;51.166;4.470;2022-11-09T09:23:59;14.10;99.90
28189;DHT22;15471;51.166;4.470;2022-11-09T09:26:25;14.20;99.90
28189;DHT22;15471;51.166;4.470;2022-11-09T09:28:51;14.30;99.90
28189;DHT22;15471;51.166;4.470;2022-11-09T09:31:17;14.40;99.90
28189;DHT22;15471;51.166;4.470;2022-11-09T09:33:43;14.40;99.90
28189;DHT22;15471;51.166;4.470;2022-11-09T09:36:16;14.40;99.90
28189;DHT22;15471;51.166;4.470;2022-11-09T09:38:43;14.30;99.90
28189;DHT22;15471;51.166;4.470;2022-11-09T09:41:24;14.10;99.90
28189;DHT22;15471;51.166;4.470;2022-11-09T09:43:56;14.00;99.90
28189;DHT22;15471;51.166;4.470;2022-11-09T09:49:57;14.10;99.90
28189;DHT22;15471;51.166;4.470;2022-11-09T09:55:36;14.30;99.90
28189;DHT22;15471;51.166;4.470;2022-11-09T09:58:19;14.30;99.90
28189;DHT22;15471;51.166;4.470;2022-11-09T10:00:46;14.30;99.90
28189;DHT22;15471;51.166;4.470;2022-11-09T10:03:18;14.30;99.90
28189;DHT22;15471;51.166;4.470;2022-11-09T10:06:07;14.50;99.90
28189;DHT22;15471;51.166;4.470;2022-11-09T10:08:51;14.60;99.90
28189;DHT22;15471;51.166;4.470;2022-11-09T10:14:49;14.70;99.90
28189;DHT22;15471;51.166;4.470;2022-11-09T10:29:43;14.40;99.90
28189;DHT22;15471;51.166;4.470;2022-11-09T10:32:19;14.40;99.90
28189;DHT22;15471;51.166;4.470;2022-11-09T10:35:33;14.50;99.90
28189;DHT22;15471;51.166;4.470;2022-11-09T10:38:00;14.50;99.90
28189;DHT22;15471;51.166;4.470;2022-11-09T10:40:55;14.50;99.90
28189;DHT22;15471;51.166;4.470;2022-11-09T10:43:40;14.40;99.90
28189;DHT22;15471;51.166;4.470;2022-11-09T10:46:25;14.50;99.90
28189;DHT22;15471;51.166;4.470;2022-11-09T10:49:20;14.50;99.90
28189;DHT22;15471;51.166;4.470;2022-11-09T10:52:48;14.60;99.90
28189;DHT22;15471;51.166;4.470;2022-11-09T10:55:21;14.50;99.90
28189;DHT22;15471;51.166;4.470;2022-11-09T11:03:52;14.60;99.90
28189;DHT22;15471;51.166;4.470;2022-11-09T11:06:37;14.40;99.90
28189;DHT22;15471;51.166;4.470;2022-11-09T11:09:22;14.50;99.90
28189;DHT22;15471;51.166;4.470;2022-11-09T11:12:15;14.60;99.90
28189;DHT22;15471;51.166;4.470;2022-11-09T11:15:20;14.70;99.90
28189;DHT22;15471;51.166;4.470;2022-11-09T11:18:32;14.80;99.90
28189;DHT22;15471;51.166;4.470;2022-11-09T11:21:19;14.80;99.90
28189;DHT22;15471;51.166;4.470;2022-11-09T11:24:18;14.70;99.90
28189;DHT22;15471;51.166;4.470;2022-11-09T11:27:15;14.80;99.90
28189;DHT22;15471;51.166;4.470;2022-11-09T11:30:19;14.80;99.90
28189;DHT22;15471;51.166;4.470;2022-11-09T11:33:14;14.70;99.90
28189;DHT22;15471;51.166;4.470;2022-11-09T11:39:12;14.50;99.90
28189;DHT22;15471;51.166;4.470;2022-11-09T11:42:06;14.50;99.90
28189;DHT22;15471;51.166;4.470;2022-11-09T11:51:56;14.30;99.90
28189;DHT22;15471;51.166;4.470;2022-11-09T11:54:58;14.10;99.90
28189;DHT22;15471;51.166;4.470;2022-11-09T11:58:14;14.10;99.90
28189;DHT22;15471;51.166;4.470;2022-11-09T12:08:19;14.30;99.90
28189;DHT22;15471;51.166;4.470;2022-11-09T12:11:04;14.40;99.90
28189;DHT22;15471;51.166;4.470;2022-11-09T12:20:20;14.50;99.90
28189;DHT22;15471;51.166;4.470;2022-11-09T12:23:28;14.60;99.90
28189;DHT22;15471;51.166;4.470;2022-11-09T12:26:18;14.70;99.90
28189;DHT22;15471;51.166;4.470;2022-11-09T12:29:15;14.80;99.90
28189;DHT22;15471;51.166;4.470;2022-11-09T12:35:47;14.70;99.90
28189;DHT22;15471;51.166;4.470;2022-11-09T12:41:42;14.80;99.90
28189;DHT22;15471;51.166;4.470;2022-11-09T12:44:32;14.80;99.90
28189;DHT22;15471;51.166;4.470;2022-11-09T12:47:23;14.60;99.90
28189;DHT22;15471;51.166;4.470;2022-11-09T12:50:21;14.60;99.90
28189;DHT22;15471;51.166;4.470;2022-11-09T12:53:07;14.50;99.90
28189;DHT22;15471;51.166;4.470;2022-11-09T12:59:49;14.50;99.90
28189;DHT22;15471;51.166;4.470;2022-11-09T13:03:03;14.50;99.90
28189;DHT22;15471;51.166;4.470;2022-11-09T13:11:51;14.40;99.90
28189;DHT22;15471;51.166;4.470;2022-11-09T13:14:45;14.40;99.90
28189;DHT22;15471;51.166;4.470;2022-11-09T13:23:57;14.60;99.90
28189;DHT22;15471;51.166;4.470;2022-11-09T13:27:00;14.60;99.90
28189;DHT22;15471;51.166;4.470;2022-11-09T13:29:48;14.70;99.90
28189;DHT22;15471;51.166;4.470;2022-11-09T13:32:33;14.70;99.90
28189;DHT22;15471;51.166;4.470;2022-11-09T13:38:34;14.90;99.90
28189;DHT22;15471;51.166;4.470;2022-11-09T13:47:26;15.20;99.90
28189;DHT22;15471;51.166;4.470;2022-11-09T13:50:22;15.10;99.90
28189;DHT22;15471;51.166;4.470;2022-11-09T13:53:52;14.90;99.90
28189;DHT22;15471;51.166;4.470;2022-11-09T13:56:43;14.80;99.90
28189;DHT22;15471;51.166;4.470;2022-11-09T13:59:38;14.80;99.90
28189;DHT22;15471;51.166;4.470;2022-11-09T14:02:28;14.70;99.90
28189;DHT22;15471;51.166;4.470;2022-11-09T14:05:33;14.70;99.90
28189;DHT22;15471;51.166;4.470;2022-11-09T14:08:35;14.60;99.90
28189;DHT22;15471;51.166;4.470;2022-11-09T14:11:50;14.70;99.90
28189;DHT22;15471;51.166;4.470;2022-11-09T14:23:20;14.40;99.90
28189;DHT22;15471;51.166;4.470;2022-11-09T14:26:16;14.40;99.90
28189;DHT22;15471;51.166;4.470;2022-11-09T14:29:21;14.40;99.90
28189;DHT22;15471;51.166;4.470;2022-11-09T14:32:26;14.00;99.90
28189;DHT22;15471;51.166;4.470;2022-11-09T14:41:03;13.20;99.90
28189;DHT22;15471;51.166;4.470;2022-11-09T14:43:48;13.00;99.90
28189;DHT22;15471;51.166;4.470;2022-11-09T14:46:33;12.80;99.90
28189;DHT22;15471;51.166;4.470;2022-11-09T14:49:18;12.70;99.90
28189;DHT22;15471;51.166;4.470;2022-11-09T14:52:04;12.50;99.90
28189;DHT22;15471;51.166;4.470;2022-11-09T14:54:49;12.30;99.90
28189;DHT22;15471;51.166;4.470;2022-11-09T14:57:35;12.30;99.90
28189;DHT22;15471;51.166;4.470;2022-11-09T15:00:32;12.40;99.90
28189;DHT22;15471;51.166;4.470;2022-11-09T15:03:29;12.40;99.90
28189;DHT22;15471;51.166;4.470;2022-11-09T15:06:16;12.50;99.90
28189;DHT22;15471;51.166;4.470;2022-11-09T15:09:04;12.60;99.90
28189;DHT22;15471;51.166;4.470;2022-11-09T15:11:50;12.50;99.90
28189;DHT22;15471;51.166;4.470;2022-11-09T15:14:35;12.50;99.90
28189;DHT22;15471;51.166;4.470;2022-11-09T15:23:04;12.40;99.90
28189;DHT22;15471;51.166;4.470;2022-11-09T15:28:43;12.30;99.90
28189;DHT22;15471;51.166;4.470;2022-11-09T15:31:28;12.40;99.90
28189;DHT22;15471;51.166;4.470;2022-11-09T15:34:23;12.30;99.90
28189;DHT22;15471;51.166;4.470;2022-11-09T15:37:29;12.30;99.90
28189;DHT22;15471;51.166;4.470;2022-11-09T15:40:23;12.30;99.90
28189;DHT22;15471;51.166;4.470;2022-11-09T15:43:08;12.30;99.90
28189;DHT22;15471;51.166;4.470;2022-11-09T15:45:54;12.30;99.90
28189;DHT22;15471;51.166;4.470;2022-11-09T15:48:39;12.30;99.90
28189;DHT22;15471;51.166;4.470;2022-11-09T15:51:23;12.30;99.90
28189;DHT22;15471;51.166;4.470;2022-11-09T15:54:08;12.30;99.90
28189;DHT22;15471;51.166;4.470;2022-11-09T15:56:52;12.30;99.90
28189;DHT22;15471;51.166;4.470;2022-11-09T15:59:37;12.30;99.90
28189;DHT22;15471;51.166;4.470;2022-11-09T16:02:21;12.20;99.90
28189;DHT22;15471;51.166;4.470;2022-11-09T16:05:06;12.20;99.90
28189;DHT22;15471;51.166;4.470;2022-11-09T16:07:53;12.20;99.90
28189;DHT22;15471;51.166;4.470;2022-11-09T16:10:39;12.10;99.90
28189;DHT22;15471;51.166;4.470;2022-11-09T16:13:24;12.20;99.90
28189;DHT22;15471;51.166;4.470;2022-11-09T16:16:10;12.10;99.90
28189;DHT22;15471;51.166;4.470;2022-11-09T16:18:56;12.00;99.90
28189;DHT22;15471;51.166;4.470;2022-11-09T16:21:41;12.00;99.90
28189;DHT22;15471;51.166;4.470;2022-11-09T16:24:26;12.00;99.90
28189;DHT22;15471;51.166;4.470;2022-11-09T16:27:11;12.00;99.90
28189;DHT22;15471;51.166;4.470;2022-11-09T16:29:55;11.90;99.90
28189;DHT22;15471;51.166;4.470;2022-11-09T16:32:40;12.00;99.90
28189;DHT22;15471;51.166;4.470;2022-11-09T16:35:24;12.00;99.90
28189;DHT22;15471;51.166;4.470;2022-11-09T16:38:09;12.00;99.90
28189;DHT22;15471;51.166;4.470;2022-11-09T16:40:53;11.90;99.90
28189;DHT22;15471;51.166;4.470;2022-11-09T16:43:38;11.90;99.90
28189;DHT22;15471;51.166;4.470;2022-11-09T16:46:25;11.80;99.90
28189;DHT22;15471;51.166;4.470;2022-11-09T16:49:10;11.80;99.90
28189;DHT22;15471;51.166;4.470;2022-11-09T16:51:55;11.80;99.90
28189;DHT22;15471;51.166;4.470;2022-11-09T16:54:39;11.80;99.90
28189;DHT22;15471;51.166;4.470;2022-11-09T16:57:24;11.80;99.90
28189;DHT22;15471;51.166;4.470;2022-11-09T17:00:09;11.70;99.90
28189;DHT22;15471;51.166;4.470;2022-11-09T17:02:54;11.70;99.90
28189;DHT22;15471;51.166;4.470;2022-11-09T17:05:39;11.80;99.90
28189;DHT22;15471;51.166;4.470;2022-11-09T17:08:24;11.80;99.90
28189;DHT22;15471;51.166;4.470;2022-11-09T17:11:10;11.70;99.90
28189;DHT22;15471;51.166;4.470;2022-11-09T17:13:57;11.70;99.90
28189;DHT22;15471;51.166;4.470;2022-11-09T17:16:41;11.60;99.90
28189;DHT22;15471;51.166;4.470;2022-11-09T17:19:35;11.60;99.90
28189;DHT22;15471;51.166;4.470;2022-11-09T17:22:21;11.50;99.90
28189;DHT22;15471;51.166;4.470;2022-11-09T17:25:06;11.60;99.90
28189;DHT22;15471;51.166;4.470;2022-11-09T17:27:53;11.60;99.90
28189;DHT22;15471;51.166;4.470;2022-11-09T17:30:41;11.60;99.90
28189;DHT22;15471;51.166;4.470;2022-11-09T17:33:33;11.60;99.90
28189;DHT22;15471;51.166;4.470;2022-11-09T17:36:20;11.60;99.90
28189;DHT22;15471;51.166;4.470;2022-11-09T17:39:18;11.60;99.90
28189;DHT22;15471;51.166;4.470;2022-11-09T17:42:16;11.60;99.90
28189;DHT22;15471;51.166;4.470;2022-11-09T17:45:02;11.60;99.90
28189;DHT22;15471;51.166;4.470;2022-11-09T17:47:47;11.60;99.90
28189;DHT22;15471;51.166;4.470;2022-11-09T17:50:31;11.60;99.90
28189;DHT22;15471;51.166;4.470;2022-11-09T17:53:16;11.60;99.90
28189;DHT22;15471;51.166;4.470;2022-11-09T17:56:02;11.60;99.90
28189;DHT22;15471;51.166;4.470;2022-11-09T17:58:47;11.50;99.90
28189;DHT22;15471;51.166;4.470;2022-11-09T18:01:31;11.40;99.90
28189;DHT22;15471;51.166;4.470;2022-11-09T18:04:17;11.40;99.90
28189;DHT22;15471;51.166;4.470;2022-11-09T18:07:02;11.40;99.90
28189;DHT22;15471;51.166;4.470;2022-11-09T18:09:47;11.40;99.90
28189;DHT22;15471;51.166;4.470;2022-11-09T18:12:33;11.30;99.90